createdAt,value
2022-09-12T00:01:38.373Z,99319.53
2022-09-12T00:04:04.913Z,99316.94
2022-09-12T00:06:34.556Z,99313.50
2022-09-12T00:09:04.625Z,99309.97
2022-09-12T00:11:31.611Z,99322.22
2022-09-12T00:14:00.605Z,99326.38
2022-09-12T00:16:29.184Z,99331.19
2022-09-12T00:18:55.951Z,99324.28
2022-09-12T00:21:23.030Z,99324.44
2022-09-12T00:23:50.570Z,99323.34
2022-09-12T00:26:18.123Z,99323.50
2022-09-12T00:28:45.347Z,99321.00
2022-09-12T00:31:15.543Z,99319.38
2022-09-12T00:33:43.727Z,99313.94
2022-09-12T00:36:16.903Z,99316.75
2022-09-12T00:38:44.340Z,99315.91
2022-09-12T00:41:22.421Z,99310.78
2022-09-12T00:43:55.122Z,99313.84
2022-09-12T00:46:53.366Z,99307.25
2022-09-12T00:49:29.382Z,99306.00
2022-09-12T00:51:59.392Z,99306.25
2022-09-12T00:54:30.295Z,99304.59
2022-09-12T00:57:01.645Z,99307.25
2022-09-12T00:59:35.477Z,99300.97
2022-09-12T01:02:02.300Z,99303.31
2022-09-12T01:04:30.216Z,99312.59
2022-09-12T01:07:00.082Z,99314.66
2022-09-12T01:09:26.836Z,99313.19
2022-09-12T01:11:53.865Z,99312.44
2022-09-12T01:14:21.354Z,99310.41
2022-09-12T01:16:49.955Z,99302.66
2022-09-12T01:19:25.431Z,99294.69
2022-09-12T01:22:10.646Z,99300.97
2022-09-12T01:24:52.249Z,99308.13
2022-09-12T01:27:41.201Z,99303.81
2022-09-12T01:30:19.495Z,99299.88
2022-09-12T01:33:13.914Z,99291.69
2022-09-12T01:35:40.400Z,99299.91
2022-09-12T01:38:38.331Z,99307.34
2022-09-12T01:41:14.046Z,99297.22
2022-09-12T01:43:51.946Z,99296.56
2022-09-12T01:46:24.545Z,99289.25
2022-09-12T01:48:58.333Z,99280.13
2022-09-12T01:51:46.422Z,99278.16
2022-09-12T01:54:20.847Z,99277.94
2022-09-12T01:56:51.643Z,99285.06
2022-09-12T01:59:25.202Z,99278.88
2022-09-12T02:02:00.924Z,99280.03
2022-09-12T02:04:36.925Z,99274.53
2022-09-12T02:07:19.326Z,99274.56
2022-09-12T02:10:02.306Z,99270.16
2022-09-12T02:12:35.034Z,99265.91
2022-09-12T02:15:05.315Z,99273.69
2022-09-12T02:17:36.652Z,99260.78
2022-09-12T02:20:08.767Z,99266.00
2022-09-12T02:22:37.655Z,99264.56
2022-09-12T02:25:08.147Z,99264.56
2022-09-12T02:27:46.739Z,99260.97
2022-09-12T02:30:17.993Z,99265.44
2022-09-12T02:33:14.086Z,99263.84
2022-09-12T02:35:51.558Z,99264.56
2022-09-12T02:38:50.880Z,99257.53
2022-09-12T02:41:21.211Z,99274.13
2022-09-12T02:43:50.588Z,99271.88
2022-09-12T02:46:27.889Z,99262.00
2022-09-12T02:48:55.569Z,99275.19
2022-09-12T02:51:23.787Z,99269.88
2022-09-12T02:53:51.405Z,99263.19
2022-09-12T02:56:28.599Z,99258.88
2022-09-12T02:58:57.597Z,99253.91
2022-09-12T03:01:39.346Z,99237.34
2022-09-12T03:04:40.299Z,99234.78
2022-09-12T03:07:29.027Z,99239.13
2022-09-12T03:10:20.754Z,99244.59
2022-09-12T03:13:02.236Z,99229.91
2022-09-12T03:15:32.086Z,99229.47
2022-09-12T03:18:19.777Z,99238.44
2022-09-12T03:21:04.605Z,99242.69
2022-09-12T03:23:53.085Z,99232.50
2022-09-12T03:26:59.077Z,99239.59
2022-09-12T03:29:28.352Z,99239.59
2022-09-12T03:31:58.156Z,99241.34
2022-09-12T03:34:26.606Z,99228.25
2022-09-12T03:36:55.468Z,99227.09
2022-09-12T03:39:24.526Z,99241.78
2022-09-12T03:41:52.044Z,99231.53
2022-09-12T03:44:19.122Z,99234.22
2022-09-12T03:46:46.111Z,99241.06
2022-09-12T03:49:13.115Z,99234.09
2022-09-12T03:51:40.037Z,99230.81
2022-09-12T03:54:07.003Z,99226.50
2022-09-12T03:56:33.524Z,99221.38
2022-09-12T03:59:00.042Z,99219.69
2022-09-12T04:01:26.884Z,99211.13
2022-09-12T04:03:54.291Z,99214.47
2022-09-12T04:06:23.187Z,99216.25
2022-09-12T04:08:54.615Z,99218.03
2022-09-12T04:11:22.071Z,99216.34
2022-09-12T04:13:49.133Z,99206.78
2022-09-12T04:16:17.462Z,99214.41
2022-09-12T04:18:45.381Z,99209.25
2022-09-12T04:21:15.423Z,99204.84
2022-09-12T04:23:42.317Z,99218.94
2022-09-12T04:26:09.686Z,99217.13
2022-09-12T04:28:38.024Z,99217.19
2022-09-12T04:31:09.412Z,99221.41
2022-09-12T04:33:36.926Z,99223.34
2022-09-12T04:36:09.132Z,99231.22
2022-09-12T04:38:36.638Z,99232.78
2022-09-12T04:41:17.828Z,99238.09
2022-09-12T04:43:48.302Z,99238.97
2022-09-12T04:46:19.408Z,99241.47
2022-09-12T04:48:46.689Z,99242.38
2022-09-12T04:51:20.448Z,99238.81
2022-09-12T04:53:52.932Z,99235.28
2022-09-12T04:56:20.837Z,99226.78
2022-09-12T04:58:47.968Z,99226.88
2022-09-12T05:01:17.815Z,99231.03
2022-09-12T05:03:46.338Z,99231.13
2022-09-12T05:06:15.963Z,99230.25
2022-09-12T05:08:42.894Z,99233.59
2022-09-12T05:11:15.374Z,99223.38
2022-09-12T05:13:42.318Z,99222.34
2022-09-12T05:16:12.060Z,99219.81
2022-09-12T05:18:39.478Z,99213.59
2022-09-12T05:21:09.486Z,99217.84
2022-09-12T05:23:36.539Z,99212.59
2022-09-12T05:26:05.405Z,99211.81
2022-09-12T05:28:37.393Z,99213.59
2022-09-12T05:31:08.146Z,99215.25
2022-09-12T05:33:36.475Z,99204.72
2022-09-12T05:36:05.190Z,99205.47
2022-09-12T05:38:32.344Z,99209.84
2022-09-12T05:41:07.709Z,99207.31
2022-09-12T05:43:35.342Z,99198.75
2022-09-12T05:46:08.923Z,99195.91
2022-09-12T05:48:37.121Z,99190.88
2022-09-12T05:51:09.318Z,99189.72
2022-09-12T05:53:40.595Z,99195.88
2022-09-12T05:56:07.526Z,99186.41
2022-09-12T05:58:35.771Z,99186.22
2022-09-12T06:01:05.590Z,99184.59
2022-09-12T06:03:32.218Z,99168.13
2022-09-12T06:06:02.722Z,99166.16
2022-09-12T06:08:30.864Z,99164.50
2022-09-12T06:11:02.876Z,99164.56
2022-09-12T06:13:36.906Z,99164.66
2022-09-12T06:16:08.197Z,99171.41
2022-09-12T06:18:35.912Z,99178.28
2022-09-12T06:21:07.256Z,99184.31
2022-09-12T06:23:34.231Z,99184.13
2022-09-12T06:26:02.242Z,99194.44
2022-09-12T06:28:29.183Z,99197.16
2022-09-12T06:31:04.588Z,99194.41
2022-09-12T06:33:34.258Z,99199.47
2022-09-12T06:36:07.896Z,99203.88
2022-09-12T06:38:37.271Z,99208.09
2022-09-12T06:41:10.246Z,99208.84
2022-09-12T06:43:37.400Z,99197.63
2022-09-12T06:46:05.277Z,99201.22
2022-09-12T06:48:32.598Z,99208.75
2022-09-12T06:51:07.806Z,99205.84
2022-09-12T06:53:34.894Z,99211.41
2022-09-12T06:56:05.001Z,99219.22
2022-09-12T06:58:35.106Z,99218.13
2022-09-12T07:01:22.390Z,99228.31
2022-09-12T07:03:51.654Z,99231.00
2022-09-12T07:06:20.954Z,99232.78
2022-09-12T07:08:48.527Z,99228.38
2022-09-12T07:11:21.210Z,99219.59
2022-09-12T07:13:50.853Z,99217.84
2022-09-12T07:16:19.934Z,99222.94
2022-09-12T07:19:01.224Z,99216.66
2022-09-12T07:21:29.087Z,99220.75
2022-09-12T07:23:57.806Z,99219.06
2022-09-12T07:26:29.805Z,99210.13
2022-09-12T07:29:12.851Z,99217.03
2022-09-12T07:31:45.300Z,99203.09
2022-09-12T07:34:12.082Z,99202.16
2022-09-12T07:36:39.196Z,99192.63
2022-09-12T07:39:06.121Z,99201.78
2022-09-12T07:41:35.906Z,99205.03
2022-09-12T07:44:03.547Z,99202.19
2022-09-12T07:46:31.340Z,99195.91
2022-09-12T07:48:59.573Z,99212.09
2022-09-12T07:51:28.098Z,99211.97
2022-09-12T07:53:56.431Z,99204.69
2022-09-12T07:56:28.819Z,99219.41
2022-09-12T07:58:56.963Z,99222.56
2022-09-12T08:01:24.012Z,99217.25
2022-09-12T08:03:54.985Z,99230.09
2022-09-12T08:06:25.912Z,99232.97
2022-09-12T08:08:54.727Z,99222.44
2022-09-12T08:11:22.831Z,99245.69
2022-09-12T08:13:55.424Z,99254.13
2022-09-12T08:16:24.602Z,99258.16
2022-09-12T08:18:51.327Z,99260.66
2022-09-12T08:21:20.771Z,99258.66
2022-09-12T08:23:51.252Z,99258.44
2022-09-12T08:26:17.903Z,99262.69
2022-09-12T08:28:46.574Z,99282.47
2022-09-12T08:31:16.569Z,99284.97
2022-09-12T08:33:43.285Z,99284.75
2022-09-12T08:36:17.563Z,99291.53
2022-09-12T08:38:46.265Z,99295.34
2022-09-12T08:41:18.526Z,99277.06
2022-09-12T08:44:07.193Z,99279.50
2022-09-12T08:46:33.713Z,99280.28
2022-09-12T08:49:02.615Z,99279.22
2022-09-12T08:51:31.461Z,99277.34
2022-09-12T08:53:59.195Z,99277.16
2022-09-12T08:56:33.231Z,99281.69
2022-09-12T08:58:59.849Z,99278.72
2022-09-12T09:01:38.855Z,99289.00
2022-09-12T09:04:09.153Z,99293.19
2022-09-12T09:06:59.343Z,99293.88
2022-09-12T09:09:31.942Z,99294.66
2022-09-12T09:12:07.616Z,99293.56
2022-09-12T09:14:54.504Z,99290.03
2022-09-12T09:18:13.058Z,99288.06
2022-09-12T09:20:42.959Z,99289.66
2022-09-12T09:23:24.201Z,99297.19
2022-09-12T09:26:08.889Z,99298.59
2022-09-12T09:28:39.882Z,99300.06
2022-09-12T09:31:16.254Z,99289.47
2022-09-12T09:33:43.779Z,99288.78
2022-09-12T09:36:44.091Z,99290.78
2022-09-12T09:39:36.457Z,99285.44
2022-09-12T09:42:14.840Z,99291.00
2022-09-12T09:44:41.843Z,99273.00
2022-09-12T09:47:11.541Z,99278.59
2022-09-12T09:49:39.395Z,99273.19
2022-09-12T09:52:08.525Z,99267.44
2022-09-12T09:54:40.835Z,99271.81
2022-09-12T09:57:35.281Z,99260.56
2022-09-12T10:00:21.802Z,99260.47
2022-09-12T10:03:13.967Z,99259.91
2022-09-12T10:05:53.198Z,99264.03
2022-09-12T10:08:22.666Z,99262.91
2022-09-12T10:11:03.569Z,99257.44
2022-09-12T10:13:54.813Z,99251.47
2022-09-12T10:16:23.035Z,99249.47
2022-09-12T10:18:52.558Z,99250.41
2022-09-12T10:21:25.795Z,99242.31
2022-09-12T10:24:06.243Z,99262.28
2022-09-12T10:26:40.179Z,99259.34
2022-09-12T10:29:22.867Z,99261.59
2022-09-12T10:31:56.167Z,99271.03
2022-09-12T10:35:07.419Z,99276.91
2022-09-12T10:37:37.370Z,99282.66
2022-09-12T10:40:09.278Z,99280.53
2022-09-12T10:42:49.019Z,99274.13
2022-09-12T10:45:37.122Z,99278.34
2022-09-12T10:48:25.470Z,99285.28
2022-09-12T10:50:52.045Z,99285.28
2022-09-12T10:53:24.210Z,99291.91
2022-09-12T10:56:15.014Z,99293.16
2022-09-12T10:59:00.311Z,99291.59
2022-09-12T11:01:33.932Z,99291.13
2022-09-12T11:04:18.992Z,99288.34
2022-09-12T11:06:57.438Z,99304.66
2022-09-12T11:09:42.466Z,99301.22
2022-09-12T11:12:22.249Z,99297.38
2022-09-12T11:15:08.610Z,99294.13
2022-09-12T11:18:07.445Z,99284.88
2022-09-12T11:21:12.364Z,99276.06
2022-09-12T11:23:57.615Z,99284.25
2022-09-12T11:26:33.192Z,99277.13
2022-09-12T11:29:34.964Z,99274.41
2022-09-12T11:32:39.426Z,99279.31
2022-09-12T11:35:27.975Z,99279.84
2022-09-12T11:38:22.216Z,99279.53
2022-09-12T11:40:54.477Z,99282.69
2022-09-12T11:43:48.465Z,99288.06
2022-09-12T11:46:37.379Z,99283.31
2022-09-12T11:49:13.558Z,99283.78
2022-09-12T11:52:01.842Z,99278.34
2022-09-12T11:54:53.709Z,99262.84
2022-09-12T11:57:20.902Z,99272.28
2022-09-12T11:59:55.950Z,99277.44
2022-09-12T12:02:28.328Z,99280.00
2022-09-12T12:05:04.105Z,99294.41
2022-09-12T12:07:58.546Z,99278.19
2022-09-12T12:10:41.427Z,99280.16
2022-09-12T12:13:19.407Z,99283.56
2022-09-12T12:15:49.070Z,99289.97
2022-09-12T12:18:37.077Z,99296.22
2022-09-12T12:21:32.410Z,99295.25
2022-09-12T12:24:24.142Z,99298.53
2022-09-12T12:26:54.467Z,99303.94
2022-09-12T12:29:21.534Z,99305.81
2022-09-12T12:32:03.622Z,99302.47
2022-09-12T12:34:41.925Z,99297.22
2022-09-12T12:37:23.205Z,99296.75
2022-09-12T12:39:53.801Z,99293.41
2022-09-12T12:42:32.854Z,99294.56
2022-09-12T12:45:03.815Z,99286.44
2022-09-12T12:47:36.070Z,99279.25
2022-09-12T12:50:32.164Z,99286.31
2022-09-12T12:53:03.235Z,99281.81
2022-09-12T12:55:38.745Z,99285.78
2022-09-12T12:58:07.462Z,99285.88
2022-09-12T13:00:40.212Z,99282.72
2022-09-12T13:03:19.951Z,99284.38
2022-09-12T13:05:49.994Z,99294.88
2022-09-12T13:08:19.946Z,99291.31
2022-09-12T13:11:16.978Z,99288.88
2022-09-12T13:13:52.766Z,99282.47
2022-09-12T13:16:33.685Z,99281.47
2022-09-12T13:19:23.073Z,99277.03
2022-09-12T13:21:59.663Z,99281.84
2022-09-12T13:24:26.272Z,99284.81
2022-09-12T13:26:53.794Z,99275.13
2022-09-12T13:29:25.935Z,99260.88
2022-09-12T13:32:01.665Z,99253.03
2022-09-12T13:34:33.630Z,99241.16
2022-09-12T13:37:28.482Z,99236.53
2022-09-12T13:40:31.823Z,99226.19
2022-09-12T13:43:15.372Z,99215.81
2022-09-12T13:45:44.290Z,99209.75
2022-09-12T13:48:19.098Z,99190.72
2022-09-12T13:50:55.086Z,99182.88
2022-09-12T13:53:26.170Z,99185.25
2022-09-12T13:55:58.883Z,99177.94
2022-09-12T13:58:31.158Z,99170.91
2022-09-12T14:01:10.457Z,99177.84
2022-09-12T14:04:08.614Z,99172.41
2022-09-12T14:06:48.255Z,99147.72
2022-09-12T14:09:24.981Z,99162.16
2022-09-12T14:11:53.993Z,99138.69
2022-09-12T14:14:31.486Z,99136.91
2022-09-12T14:16:59.104Z,99129.34
2022-09-12T14:19:27.533Z,99122.84
2022-09-12T14:21:55.051Z,99113.75
2022-09-12T14:24:25.177Z,99115.19
2022-09-12T14:26:57.128Z,99119.03
2022-09-12T14:29:25.293Z,99120.13
2022-09-12T14:32:05.772Z,99111.28
2022-09-12T14:34:32.288Z,99103.28
2022-09-12T14:36:59.711Z,99096.34
2022-09-12T14:39:33.653Z,99084.66
2022-09-12T14:42:07.053Z,99075.28
2022-09-12T14:44:35.641Z,99078.00
2022-09-12T14:47:13.776Z,99077.09
2022-09-12T14:49:41.202Z,99094.19
2022-09-12T14:52:23.300Z,99099.56
2022-09-12T14:55:20.836Z,99099.28
2022-09-12T14:57:47.961Z,99095.91
2022-09-12T15:00:22.330Z,99090.78
2022-09-12T15:02:51.122Z,99095.81
2022-09-12T15:05:24.621Z,99087.75
2022-09-12T15:07:51.222Z,99095.56
2022-09-12T15:10:34.486Z,99101.34
2022-09-12T15:13:14.159Z,99094.28
2022-09-12T15:15:44.616Z,99084.41
2022-09-12T15:18:12.189Z,99078.16
2022-09-12T15:20:41.236Z,99077.34
2022-09-12T15:23:16.262Z,99081.09
2022-09-12T15:25:43.014Z,99082.41
2022-09-12T15:28:23.997Z,99081.75
2022-09-12T15:30:53.529Z,99076.84
2022-09-12T15:33:22.914Z,99077.16
2022-09-12T15:35:50.736Z,99081.41
2022-09-12T15:38:17.473Z,99068.94
2022-09-12T15:40:45.806Z,99071.78
2022-09-12T15:43:13.489Z,99058.69
2022-09-12T15:45:43.037Z,99070.94
2022-09-12T15:48:10.170Z,99083.09
2022-09-12T15:50:36.868Z,99066.19
2022-09-12T15:53:03.441Z,99067.13
2022-09-12T15:55:32.951Z,99044.41
2022-09-12T15:58:07.066Z,99051.13
2022-09-12T16:00:34.047Z,99044.78
2022-09-12T16:03:01.366Z,99041.25
2022-09-12T16:05:29.913Z,99062.69
2022-09-12T16:07:56.688Z,99051.44
2022-09-12T16:10:30.007Z,99048.03
2022-09-12T16:12:57.232Z,99047.81
2022-09-12T16:15:25.665Z,99035.81
2022-09-12T16:17:52.910Z,99037.13
2022-09-12T16:20:20.850Z,99029.13
2022-09-12T16:22:48.182Z,99037.63
2022-09-12T16:25:14.863Z,99028.91
2022-09-12T16:27:41.798Z,99034.00
2022-09-12T16:30:09.102Z,99031.28
2022-09-12T16:32:36.165Z,99032.78
2022-09-12T16:35:04.035Z,99033.16
2022-09-12T16:37:34.681Z,99028.97
2022-09-12T16:40:02.403Z,99032.88
2022-09-12T16:42:29.022Z,99043.88
2022-09-12T16:44:56.063Z,99035.16
2022-09-12T16:47:22.964Z,99040.44
2022-09-12T16:49:49.821Z,99027.03
2022-09-12T16:52:16.700Z,99033.22
2022-09-12T16:54:44.540Z,99040.75
2022-09-12T16:57:11.784Z,99041.69
2022-09-12T16:59:38.332Z,99045.16
2022-09-12T17:02:05.311Z,99044.69
2022-09-12T17:04:31.987Z,99049.44
2022-09-12T17:06:59.815Z,99047.72
2022-09-12T17:09:28.138Z,99045.69
2022-09-12T17:11:55.610Z,99045.88
2022-09-12T17:14:22.224Z,99032.59
2022-09-12T17:16:51.859Z,99028.59
2022-09-12T17:19:28.053Z,99032.00
2022-09-12T17:21:54.757Z,99028.75
2022-09-12T17:24:21.747Z,99032.09
2022-09-12T17:26:48.341Z,99017.59
2022-09-12T17:29:15.411Z,99024.53
2022-09-12T17:31:43.160Z,99027.03
2022-09-12T17:34:14.176Z,99023.53
2022-09-12T17:36:44.275Z,99027.22
2022-09-12T17:39:11.874Z,99032.81
2022-09-12T17:41:39.544Z,99029.69
2022-09-12T17:44:07.844Z,99036.03
2022-09-12T17:46:37.109Z,99037.75
2022-09-12T17:49:07.595Z,99034.81
2022-09-12T17:51:35.266Z,99033.69
2022-09-12T17:54:09.047Z,99036.47
2022-09-12T17:56:36.982Z,99030.34
2022-09-12T17:59:05.782Z,99032.50
2022-09-12T18:01:51.183Z,99022.34
2022-09-12T18:04:17.989Z,99024.56
2022-09-12T18:06:50.660Z,99022.63
2022-09-12T18:09:20.719Z,99035.06
2022-09-12T18:11:50.133Z,99018.16
2022-09-12T18:14:17.613Z,99020.72
2022-09-12T18:16:44.917Z,99008.50
2022-09-12T18:19:11.640Z,99001.75
2022-09-12T18:21:38.189Z,99008.69
2022-09-12T18:24:05.340Z,98997.91
2022-09-12T18:26:32.692Z,99006.22
2022-09-12T18:28:59.561Z,99001.94
2022-09-12T18:31:28.953Z,98991.66
2022-09-12T18:33:56.722Z,98992.50
2022-09-12T18:36:23.614Z,98992.78
2022-09-12T18:38:50.181Z,98990.03
2022-09-12T18:41:19.366Z,98997.13
2022-09-12T18:43:46.290Z,98990.28
2022-09-12T18:46:15.295Z,98982.34
2022-09-12T18:48:42.530Z,98990.78
2022-09-12T18:51:20.881Z,98986.63
2022-09-12T18:53:56.399Z,98984.88
2022-09-12T18:56:25.701Z,98983.13
2022-09-12T18:58:54.743Z,98985.03
2022-09-12T19:01:26.042Z,98985.34
2022-09-12T19:03:53.500Z,98987.09
2022-09-12T19:06:22.506Z,98998.53
2022-09-12T19:08:50.415Z,98996.81
2022-09-12T19:11:17.438Z,99008.25
2022-09-12T19:13:45.303Z,99005.63
2022-09-12T19:16:15.044Z,99003.25
2022-09-12T19:18:42.767Z,99006.00
2022-09-12T19:21:17.486Z,99020.72
2022-09-12T19:23:45.260Z,99021.50
2022-09-12T19:26:14.051Z,99028.72
2022-09-12T19:28:40.712Z,99030.69
2022-09-12T19:31:10.274Z,99034.28
2022-09-12T19:33:37.462Z,99029.84
2022-09-12T19:36:27.634Z,99028.13
2022-09-12T19:38:58.266Z,99038.75
2022-09-12T19:41:24.798Z,99043.91
2022-09-12T19:43:51.376Z,99045.72
2022-09-12T19:46:20.429Z,99048.41
2022-09-12T19:48:47.828Z,99036.31
2022-09-12T19:51:16.040Z,99035.41
2022-09-12T19:53:43.862Z,99034.56
2022-09-12T19:56:13.810Z,99047.63
2022-09-12T19:58:43.627Z,99032.19
2022-09-12T20:01:22.372Z,99043.69
2022-09-12T20:03:49.129Z,99033.19
2022-09-12T20:06:17.417Z,99031.59
2022-09-12T20:08:45.083Z,99037.72
2022-09-12T20:11:15.348Z,99036.78
2022-09-12T20:13:42.087Z,99035.03
2022-09-12T20:16:21.059Z,99031.47
2022-09-12T20:18:52.111Z,99020.44
2022-09-12T20:21:20.885Z,99019.44
2022-09-12T20:23:47.638Z,99023.75
2022-09-12T20:26:14.239Z,99030.03
2022-09-12T20:28:41.376Z,99027.50
2022-09-12T20:31:12.114Z,99010.81
2022-09-12T20:33:39.163Z,99012.56
2022-09-12T20:36:17.337Z,99007.22
2022-09-12T20:38:49.227Z,98996.25
2022-09-12T20:41:17.771Z,98998.66
2022-09-12T20:43:44.340Z,98976.19
2022-09-12T20:46:11.956Z,98968.28
2022-09-12T20:48:39.502Z,98966.50
2022-09-12T20:51:07.384Z,98962.75
2022-09-12T20:53:35.412Z,98947.22
2022-09-12T20:56:03.265Z,98947.09
2022-09-12T20:58:30.253Z,98954.81
2022-09-12T21:00:57.029Z,98955.00
2022-09-12T21:03:25.552Z,98964.72
2022-09-12T21:05:52.348Z,98986.22
2022-09-12T21:08:19.215Z,98998.38
2022-09-12T21:10:46.171Z,99006.25
2022-09-12T21:13:13.897Z,99003.91
2022-09-12T21:15:44.302Z,98994.34
2022-09-12T21:18:11.064Z,98996.63
2022-09-12T21:20:37.857Z,98991.38
2022-09-12T21:23:04.598Z,98999.16
2022-09-12T21:25:34.125Z,98979.16
2022-09-12T21:28:01.527Z,98976.66
2022-09-12T21:30:28.114Z,98963.53
2022-09-12T21:32:54.806Z,98974.03
2022-09-12T21:35:21.481Z,98960.13
2022-09-12T21:37:48.760Z,98942.69
2022-09-12T21:40:15.892Z,98940.78
2022-09-12T21:42:43.260Z,98923.69
2022-09-12T21:45:10.774Z,98909.78
2022-09-12T21:47:39.167Z,98912.22
2022-09-12T21:50:09.292Z,98903.59
2022-09-12T21:52:36.726Z,98901.06
2022-09-12T21:55:05.586Z,98872.53
2022-09-12T21:57:36.510Z,98887.25
2022-09-12T22:00:10.358Z,98888.97
2022-09-12T22:02:36.820Z,98885.69
2022-09-12T22:05:04.188Z,98881.16
2022-09-12T22:07:31.390Z,98899.38
2022-09-12T22:09:58.032Z,98903.03
2022-09-12T22:12:27.451Z,98912.81
2022-09-12T22:14:55.946Z,98916.16
2022-09-12T22:17:23.099Z,98921.28
2022-09-12T22:19:50.044Z,98921.53
2022-09-12T22:22:35.084Z,98933.59
2022-09-12T22:25:02.140Z,98963.41
2022-09-12T22:27:28.706Z,99018.44
2022-09-12T22:29:55.236Z,99066.78
2022-09-12T22:32:22.207Z,99033.38
2022-09-12T22:34:48.722Z,99006.94
2022-09-12T22:37:15.278Z,99039.19
2022-09-12T22:39:41.879Z,99021.66
2022-09-12T22:42:09.656Z,99026.41
2022-09-12T22:44:36.152Z,99054.09
2022-09-12T22:47:02.702Z,99056.41
2022-09-12T22:49:29.275Z,99049.19
2022-09-12T22:51:55.810Z,99064.47
2022-09-12T22:54:22.315Z,99085.78
2022-09-12T22:56:48.866Z,99075.28
2022-09-12T22:59:15.387Z,99065.38
2022-09-12T23:01:41.936Z,99063.66
2022-09-12T23:04:08.418Z,99048.28
2022-09-12T23:06:34.906Z,99039.97
2022-09-12T23:09:01.751Z,99037.47
2022-09-12T23:11:28.344Z,99026.81
2022-09-12T23:13:55.713Z,99008.91
2022-09-12T23:16:25.613Z,99006.00
2022-09-12T23:18:52.474Z,99002.72
2022-09-12T23:21:21.308Z,98993.03
2022-09-12T23:23:48.299Z,98988.72
2022-09-12T23:26:20.563Z,98990.75
2022-09-12T23:29:07.298Z,98993.41
2022-09-12T23:31:34.342Z,98983.59
2022-09-12T23:34:03.277Z,98980.78
2022-09-12T23:36:30.412Z,98993.38
2022-09-12T23:38:57.682Z,98985.63
2022-09-12T23:41:24.691Z,98980.66
2022-09-12T23:43:51.170Z,98991.78
2022-09-12T23:46:18.902Z,98964.94
2022-09-12T23:48:45.727Z,98955.47
2022-09-12T23:51:12.546Z,98940.69
2022-09-12T23:53:40.049Z,98928.31
2022-09-12T23:56:07.210Z,98926.84
2022-09-12T23:58:33.763Z,98919.78
